sensor_id;sensor_type;location;lat;lon;timestamp;P1;durP1;ratioP1;P2;durP2;ratioP2
17441;SDS011;8838;50.144;8.176;2023-07-29T00:01:35;3.65;;;2.60;;
17441;SDS011;8838;50.144;8.176;2023-07-29T00:04:02;2.28;;;2.00;;
17441;SDS011;8838;50.144;8.176;2023-07-29T00:06:29;3.97;;;2.47;;
17441;SDS011;8838;50.144;8.176;2023-07-29T00:08:56;4.20;;;3.00;;
17441;SDS011;8838;50.144;8.176;2023-07-29T00:11:24;5.57;;;4.75;;
17441;SDS011;8838;50.144;8.176;2023-07-29T00:13:51;3.92;;;3.60;;
17441;SDS011;8838;50.144;8.176;2023-07-29T00:16:18;5.22;;;4.80;;
17441;SDS011;8838;50.144;8.176;2023-07-29T00:18:47;8.10;;;7.30;;
17441;SDS011;8838;50.144;8.176;2023-07-29T00:21:14;11.48;;;7.20;;
17441;SDS011;8838;50.144;8.176;2023-07-29T00:23:44;7.60;;;6.90;;
17441;SDS011;8838;50.144;8.176;2023-07-29T00:26:11;7.10;;;6.43;;
17441;SDS011;8838;50.144;8.176;2023-07-29T00:28:39;9.20;;;6.63;;
17441;SDS011;8838;50.144;8.176;2023-07-29T00:31:06;8.20;;;6.97;;
17441;SDS011;8838;50.144;8.176;2023-07-29T00:33:33;8.95;;;6.03;;
17441;SDS011;8838;50.144;8.176;2023-07-29T00:36:00;6.15;;;5.60;;
17441;SDS011;8838;50.144;8.176;2023-07-29T00:38:27;6.53;;;5.88;;
17441;SDS011;8838;50.144;8.176;2023-07-29T00:40:55;6.68;;;5.28;;
17441;SDS011;8838;50.144;8.176;2023-07-29T00:43:23;5.95;;;5.35;;
17441;SDS011;8838;50.144;8.176;2023-07-29T00:45:51;6.20;;;5.60;;
17441;SDS011;8838;50.144;8.176;2023-07-29T00:48:19;6.40;;;5.80;;
17441;SDS011;8838;50.144;8.176;2023-07-29T00:50:46;8.77;;;6.72;;
17441;SDS011;8838;50.144;8.176;2023-07-29T00:53:13;7.90;;;7.13;;
17441;SDS011;8838;50.144;8.176;2023-07-29T00:55:39;9.25;;;6.38;;
17441;SDS011;8838;50.144;8.176;2023-07-29T00:58:06;8.13;;;6.75;;
17441;SDS011;8838;50.144;8.176;2023-07-29T01:00:33;8.52;;;7.55;;
17441;SDS011;8838;50.144;8.176;2023-07-29T01:03:02;8.07;;;7.22;;
17441;SDS011;8838;50.144;8.176;2023-07-29T01:05:29;7.35;;;6.65;;
17441;SDS011;8838;50.144;8.176;2023-07-29T01:08:04;10.48;;;8.70;;
17441;SDS011;8838;50.144;8.176;2023-07-29T01:10:39;8.13;;;7.30;;
17441;SDS011;8838;50.144;8.176;2023-07-29T01:13:13;9.25;;;7.00;;
17441;SDS011;8838;50.144;8.176;2023-07-29T01:15:45;7.82;;;7.07;;
17441;SDS011;8838;50.144;8.176;2023-07-29T01:18:22;8.68;;;7.78;;
17441;SDS011;8838;50.144;8.176;2023-07-29T01:20:51;8.55;;;7.40;;
17441;SDS011;8838;50.144;8.176;2023-07-29T01:23:25;8.43;;;7.50;;
17441;SDS011;8838;50.144;8.176;2023-07-29T01:25:55;8.05;;;7.28;;
17441;SDS011;8838;50.144;8.176;2023-07-29T01:28:21;12.07;;;7.53;;
17441;SDS011;8838;50.144;8.176;2023-07-29T01:30:49;7.32;;;6.63;;
17441;SDS011;8838;50.144;8.176;2023-07-29T01:33:23;9.57;;;7.45;;
17441;SDS011;8838;50.144;8.176;2023-07-29T01:35:54;8.60;;;7.80;;
17441;SDS011;8838;50.144;8.176;2023-07-29T01:38:29;8.55;;;7.75;;
17441;SDS011;8838;50.144;8.176;2023-07-29T01:40:59;10.20;;;8.70;;
17441;SDS011;8838;50.144;8.176;2023-07-29T01:43:27;9.63;;;7.70;;
17441;SDS011;8838;50.144;8.176;2023-07-29T01:45:55;9.55;;;8.45;;
17441;SDS011;8838;50.144;8.176;2023-07-29T01:48:22;9.73;;;8.82;;
17441;SDS011;8838;50.144;8.176;2023-07-29T01:50:48;9.40;;;8.50;;
17441;SDS011;8838;50.144;8.176;2023-07-29T01:53:15;10.73;;;8.75;;
17441;SDS011;8838;50.144;8.176;2023-07-29T01:55:43;9.88;;;8.38;;
17441;SDS011;8838;50.144;8.176;2023-07-29T01:58:10;9.20;;;8.30;;
17441;SDS011;8838;50.144;8.176;2023-07-29T02:00:38;8.90;;;8.05;;
17441;SDS011;8838;50.144;8.176;2023-07-29T02:03:04;10.48;;;8.15;;
17441;SDS011;8838;50.144;8.176;2023-07-29T02:05:31;9.00;;;8.15;;
17441;SDS011;8838;50.144;8.176;2023-07-29T02:07:58;9.82;;;8.93;;
17441;SDS011;8838;50.144;8.176;2023-07-29T02:10:25;10.02;;;9.02;;
17441;SDS011;8838;50.144;8.176;2023-07-29T02:12:53;17.35;;;9.35;;
17441;SDS011;8838;50.144;8.176;2023-07-29T02:15:20;13.57;;;9.70;;
17441;SDS011;8838;50.144;8.176;2023-07-29T02:17:49;12.20;;;9.43;;
17441;SDS011;8838;50.144;8.176;2023-07-29T02:20:16;11.82;;;8.65;;
17441;SDS011;8838;50.144;8.176;2023-07-29T02:22:43;10.05;;;8.13;;
17441;SDS011;8838;50.144;8.176;2023-07-29T02:25:10;8.07;;;7.15;;
17441;SDS011;8838;50.144;8.176;2023-07-29T02:27:37;7.90;;;7.18;;
17441;SDS011;8838;50.144;8.176;2023-07-29T02:30:06;8.23;;;6.78;;
17441;SDS011;8838;50.144;8.176;2023-07-29T02:32:34;8.43;;;7.63;;
17441;SDS011;8838;50.144;8.176;2023-07-29T02:35:01;8.80;;;6.93;;
17441;SDS011;8838;50.144;8.176;2023-07-29T02:37:29;8.07;;;7.07;;
17441;SDS011;8838;50.144;8.176;2023-07-29T02:39:56;7.22;;;6.53;;
17441;SDS011;8838;50.144;8.176;2023-07-29T02:42:23;8.07;;;7.28;;
17441;SDS011;8838;50.144;8.176;2023-07-29T02:44:50;7.80;;;6.38;;
17441;SDS011;8838;50.144;8.176;2023-07-29T02:47:18;8.45;;;6.75;;
17441;SDS011;8838;50.144;8.176;2023-07-29T02:49:45;8.32;;;7.40;;
17441;SDS011;8838;50.144;8.176;2023-07-29T02:52:12;10.77;;;7.10;;
17441;SDS011;8838;50.144;8.176;2023-07-29T02:54:38;8.07;;;7.07;;
17441;SDS011;8838;50.144;8.176;2023-07-29T02:57:05;8.43;;;7.53;;
17441;SDS011;8838;50.144;8.176;2023-07-29T02:59:32;8.32;;;7.45;;
17441;SDS011;8838;50.144;8.176;2023-07-29T03:01:59;9.13;;;7.88;;
17441;SDS011;8838;50.144;8.176;2023-07-29T03:04:27;9.30;;;8.30;;
17441;SDS011;8838;50.144;8.176;2023-07-29T03:06:54;11.52;;;9.07;;
17441;SDS011;8838;50.144;8.176;2023-07-29T03:09:20;10.13;;;8.95;;
17441;SDS011;8838;50.144;8.176;2023-07-29T03:11:47;10.77;;;9.23;;
17441;SDS011;8838;50.144;8.176;2023-07-29T03:14:14;11.98;;;8.82;;
17441;SDS011;8838;50.144;8.176;2023-07-29T03:16:41;9.25;;;8.05;;
17441;SDS011;8838;50.144;8.176;2023-07-29T03:19:08;8.82;;;7.85;;
17441;SDS011;8838;50.144;8.176;2023-07-29T03:21:37;8.23;;;6.90;;
17441;SDS011;8838;50.144;8.176;2023-07-29T03:24:04;7.70;;;6.93;;
17441;SDS011;8838;50.144;8.176;2023-07-29T03:26:31;7.45;;;6.65;;
17441;SDS011;8838;50.144;8.176;2023-07-29T03:28:58;8.00;;;6.63;;
17441;SDS011;8838;50.144;8.176;2023-07-29T03:31:25;7.72;;;6.05;;
17441;SDS011;8838;50.144;8.176;2023-07-29T03:33:52;8.20;;;6.75;;
17441;SDS011;8838;50.144;8.176;2023-07-29T03:36:20;7.65;;;6.85;;
17441;SDS011;8838;50.144;8.176;2023-07-29T03:38:48;7.35;;;6.57;;
17441;SDS011;8838;50.144;8.176;2023-07-29T03:41:15;8.45;;;7.50;;
17441;SDS011;8838;50.144;8.176;2023-07-29T03:43:42;8.88;;;7.97;;
17441;SDS011;8838;50.144;8.176;2023-07-29T03:46:09;12.30;;;8.98;;
17441;SDS011;8838;50.144;8.176;2023-07-29T03:48:35;9.13;;;8.07;;
17441;SDS011;8838;50.144;8.176;2023-07-29T03:51:02;10.60;;;8.43;;
17441;SDS011;8838;50.144;8.176;2023-07-29T03:53:29;8.23;;;7.43;;
17441;SDS011;8838;50.144;8.176;2023-07-29T03:55:57;8.88;;;7.55;;
17441;SDS011;8838;50.144;8.176;2023-07-29T03:58:24;8.45;;;7.55;;
17441;SDS011;8838;50.144;8.176;2023-07-29T04:00:51;7.25;;;6.55;;
17441;SDS011;8838;50.144;8.176;2023-07-29T04:03:17;8.43;;;5.72;;
17441;SDS011;8838;50.144;8.176;2023-07-29T04:05:44;7.30;;;6.13;;
17441;SDS011;8838;50.144;8.176;2023-07-29T04:08:11;6.25;;;5.60;;
17441;SDS011;8838;50.144;8.176;2023-07-29T04:10:38;5.63;;;5.07;;
17441;SDS011;8838;50.144;8.176;2023-07-29T04:13:06;5.78;;;4.90;;
17441;SDS011;8838;50.144;8.176;2023-07-29T04:15:33;5.80;;;5.10;;
17441;SDS011;8838;50.144;8.176;2023-07-29T04:18:03;6.60;;;4.55;;
17441;SDS011;8838;50.144;8.176;2023-07-29T04:20:29;5.07;;;4.68;;
17441;SDS011;8838;50.144;8.176;2023-07-29T04:22:57;5.65;;;4.63;;
17441;SDS011;8838;50.144;8.176;2023-07-29T04:25:24;5.18;;;4.70;;
17441;SDS011;8838;50.144;8.176;2023-07-29T04:27:50;5.50;;;4.75;;
17441;SDS011;8838;50.144;8.176;2023-07-29T04:30:18;5.22;;;4.68;;
17441;SDS011;8838;50.144;8.176;2023-07-29T04:32:46;8.88;;;6.78;;
17441;SDS011;8838;50.144;8.176;2023-07-29T04:35:13;6.30;;;5.70;;
17441;SDS011;8838;50.144;8.176;2023-07-29T04:37:40;7.00;;;6.40;;
17441;SDS011;8838;50.144;8.176;2023-07-29T04:40:10;6.53;;;5.93;;
17441;SDS011;8838;50.144;8.176;2023-07-29T04:42:37;6.88;;;5.60;;
17441;SDS011;8838;50.144;8.176;2023-07-29T04:45:04;6.03;;;5.43;;
17441;SDS011;8838;50.144;8.176;2023-07-29T04:47:34;4.93;;;4.53;;
17441;SDS011;8838;50.144;8.176;2023-07-29T04:50:00;5.80;;;5.18;;
17441;SDS011;8838;50.144;8.176;2023-07-29T04:52:27;7.63;;;6.20;;
17441;SDS011;8838;50.144;8.176;2023-07-29T04:54:54;6.88;;;5.82;;
17441;SDS011;8838;50.144;8.176;2023-07-29T04:57:21;8.32;;;6.60;;
17441;SDS011;8838;50.144;8.176;2023-07-29T04:59:47;7.47;;;6.78;;
17441;SDS011;8838;50.144;8.176;2023-07-29T05:02:14;6.90;;;6.05;;
17441;SDS011;8838;50.144;8.176;2023-07-29T05:04:42;8.88;;;6.40;;
17441;SDS011;8838;50.144;8.176;2023-07-29T05:07:09;7.30;;;6.25;;
17441;SDS011;8838;50.144;8.176;2023-07-29T05:09:36;7.13;;;6.43;;
17441;SDS011;8838;50.144;8.176;2023-07-29T05:12:03;6.40;;;5.80;;
17441;SDS011;8838;50.144;8.176;2023-07-29T05:14:31;5.40;;;4.90;;
17441;SDS011;8838;50.144;8.176;2023-07-29T05:16:57;5.45;;;4.57;;
17441;SDS011;8838;50.144;8.176;2023-07-29T05:19:26;6.65;;;5.70;;
17441;SDS011;8838;50.144;8.176;2023-07-29T05:21:55;5.45;;;4.45;;
17441;SDS011;8838;50.144;8.176;2023-07-29T05:24:22;4.53;;;4.13;;
17441;SDS011;8838;50.144;8.176;2023-07-29T05:26:49;5.07;;;4.68;;
17441;SDS011;8838;50.144;8.176;2023-07-29T05:29:16;4.53;;;4.13;;
17441;SDS011;8838;50.144;8.176;2023-07-29T05:31:43;3.72;;;3.42;;
17441;SDS011;8838;50.144;8.176;2023-07-29T05:34:10;3.85;;;3.55;;
17441;SDS011;8838;50.144;8.176;2023-07-29T05:36:38;3.45;;;3.15;;
17441;SDS011;8838;50.144;8.176;2023-07-29T05:39:07;5.20;;;3.30;;
17441;SDS011;8838;50.144;8.176;2023-07-29T05:41:33;3.42;;;3.00;;
17441;SDS011;8838;50.144;8.176;2023-07-29T05:44:00;3.35;;;2.80;;
17441;SDS011;8838;50.144;8.176;2023-07-29T05:46:27;4.03;;;3.10;;
17441;SDS011;8838;50.144;8.176;2023-07-29T05:48:54;3.20;;;2.90;;
17441;SDS011;8838;50.144;8.176;2023-07-29T05:51:21;3.03;;;2.83;;
17441;SDS011;8838;50.144;8.176;2023-07-29T05:53:47;3.42;;;2.55;;
17441;SDS011;8838;50.144;8.176;2023-07-29T05:56:15;2.90;;;2.70;;
17441;SDS011;8838;50.144;8.176;2023-07-29T05:58:42;3.08;;;2.50;;
17441;SDS011;8838;50.144;8.176;2023-07-29T06:01:09;3.28;;;2.80;;
17441;SDS011;8838;50.144;8.176;2023-07-29T06:03:36;4.80;;;2.80;;
17441;SDS011;8838;50.144;8.176;2023-07-29T06:06:02;4.80;;;2.90;;
17441;SDS011;8838;50.144;8.176;2023-07-29T06:08:29;3.70;;;3.15;;
17441;SDS011;8838;50.144;8.176;2023-07-29T06:10:59;8.20;;;3.30;;
17441;SDS011;8838;50.144;8.176;2023-07-29T06:13:27;7.22;;;4.10;;
17441;SDS011;8838;50.144;8.176;2023-07-29T06:15:54;9.98;;;4.70;;
17441;SDS011;8838;50.144;8.176;2023-07-29T06:18:20;5.97;;;4.13;;
17441;SDS011;8838;50.144;8.176;2023-07-29T06:20:47;9.27;;;4.20;;
17441;SDS011;8838;50.144;8.176;2023-07-29T06:23:14;5.22;;;3.95;;
17441;SDS011;8838;50.144;8.176;2023-07-29T06:25:41;5.10;;;4.60;;
17441;SDS011;8838;50.144;8.176;2023-07-29T06:28:08;4.40;;;4.00;;
17441;SDS011;8838;50.144;8.176;2023-07-29T06:30:36;5.28;;;4.60;;
17441;SDS011;8838;50.144;8.176;2023-07-29T06:33:06;4.10;;;3.75;;
17441;SDS011;8838;50.144;8.176;2023-07-29T06:35:33;5.75;;;4.97;;
17441;SDS011;8838;50.144;8.176;2023-07-29T06:38:00;4.75;;;4.25;;
17441;SDS011;8838;50.144;8.176;2023-07-29T06:40:27;5.18;;;4.78;;
17441;SDS011;8838;50.144;8.176;2023-07-29T06:42:54;5.97;;;5.47;;
17441;SDS011;8838;50.144;8.176;2023-07-29T06:45:20;6.32;;;5.13;;
17441;SDS011;8838;50.144;8.176;2023-07-29T06:47:49;6.80;;;5.40;;
17441;SDS011;8838;50.144;8.176;2023-07-29T06:50:15;5.93;;;5.30;;
17441;SDS011;8838;50.144;8.176;2023-07-29T06:52:42;5.88;;;5.38;;
17441;SDS011;8838;50.144;8.176;2023-07-29T06:55:09;6.45;;;5.72;;
17441;SDS011;8838;50.144;8.176;2023-07-29T06:57:36;6.45;;;5.90;;
17441;SDS011;8838;50.144;8.176;2023-07-29T07:00:03;5.55;;;5.07;;
17441;SDS011;8838;50.144;8.176;2023-07-29T07:02:31;6.18;;;5.57;;
17441;SDS011;8838;50.144;8.176;2023-07-29T07:04:59;6.03;;;4.70;;
17441;SDS011;8838;50.144;8.176;2023-07-29T07:07:28;6.15;;;4.65;;
17441;SDS011;8838;50.144;8.176;2023-07-29T07:09:55;5.72;;;3.97;;
17441;SDS011;8838;50.144;8.176;2023-07-29T07:12:22;4.32;;;3.92;;
17441;SDS011;8838;50.144;8.176;2023-07-29T07:14:49;3.38;;;3.00;;
17441;SDS011;8838;50.144;8.176;2023-07-29T07:17:15;3.38;;;2.95;;
17441;SDS011;8838;50.144;8.176;2023-07-29T07:19:43;4.55;;;3.05;;
17441;SDS011;8838;50.144;8.176;2023-07-29T07:22:11;5.60;;;3.30;;
17441;SDS011;8838;50.144;8.176;2023-07-29T07:24:37;3.15;;;2.45;;
17441;SDS011;8838;50.144;8.176;2023-07-29T07:27:04;4.18;;;2.35;;
17441;SDS011;8838;50.144;8.176;2023-07-29T07:29:31;2.17;;;2.08;;
17441;SDS011;8838;50.144;8.176;2023-07-29T07:31:58;2.80;;;2.05;;
17441;SDS011;8838;50.144;8.176;2023-07-29T07:34:25;2.25;;;2.00;;
17441;SDS011;8838;50.144;8.176;2023-07-29T07:36:52;2.35;;;2.15;;
17441;SDS011;8838;50.144;8.176;2023-07-29T07:39:23;2.00;;;1.88;;
17441;SDS011;8838;50.144;8.176;2023-07-29T07:41:50;1.90;;;1.60;;
17441;SDS011;8838;50.144;8.176;2023-07-29T07:44:16;1.73;;;1.45;;
17441;SDS011;8838;50.144;8.176;2023-07-29T07:46:44;2.38;;;1.63;;
17441;SDS011;8838;50.144;8.176;2023-07-29T07:49:11;1.42;;;1.30;;
17441;SDS011;8838;50.144;8.176;2023-07-29T07:51:38;1.27;;;1.20;;
17441;SDS011;8838;50.144;8.176;2023-07-29T07:54:05;1.20;;;1.08;;
17441;SDS011;8838;50.144;8.176;2023-07-29T07:56:33;1.10;;;1.00;;
17441;SDS011;8838;50.144;8.176;2023-07-29T07:59:00;2.00;;;1.00;;
17441;SDS011;8838;50.144;8.176;2023-07-29T08:01:27;1.15;;;1.02;;
17441;SDS011;8838;50.144;8.176;2023-07-29T08:03:55;3.55;;;1.35;;
17441;SDS011;8838;50.144;8.176;2023-07-29T08:06:22;2.42;;;1.42;;
17441;SDS011;8838;50.144;8.176;2023-07-29T08:08:49;5.80;;;1.20;;
17441;SDS011;8838;50.144;8.176;2023-07-29T08:11:16;2.38;;;1.13;;
17441;SDS011;8838;50.144;8.176;2023-07-29T08:13:45;1.95;;;1.70;;
17441;SDS011;8838;50.144;8.176;2023-07-29T08:16:12;1.60;;;1.50;;
17441;SDS011;8838;50.144;8.176;2023-07-29T08:18:39;1.50;;;1.40;;
17441;SDS011;8838;50.144;8.176;2023-07-29T08:21:05;2.95;;;2.70;;
17441;SDS011;8838;50.144;8.176;2023-07-29T08:23:33;4.40;;;1.30;;
17441;SDS011;8838;50.144;8.176;2023-07-29T08:26:02;2.78;;;1.30;;
17441;SDS011;8838;50.144;8.176;2023-07-29T08:28:30;1.40;;;1.30;;
17441;SDS011;8838;50.144;8.176;2023-07-29T08:31:00;1.10;;;1.10;;
17441;SDS011;8838;50.144;8.176;2023-07-29T08:33:27;1.60;;;1.20;;
17441;SDS011;8838;50.144;8.176;2023-07-29T08:35:54;1.00;;;1.00;;
17441;SDS011;8838;50.144;8.176;2023-07-29T08:38:21;1.42;;;1.15;;
17441;SDS011;8838;50.144;8.176;2023-07-29T08:40:49;1.30;;;1.20;;
17441;SDS011;8838;50.144;8.176;2023-07-29T08:43:20;1.40;;;1.30;;
17441;SDS011;8838;50.144;8.176;2023-07-29T08:45:49;1.40;;;1.30;;
17441;SDS011;8838;50.144;8.176;2023-07-29T08:48:19;9.05;;;8.15;;
17441;SDS011;8838;50.144;8.176;2023-07-29T08:50:53;3.00;;;1.67;;
17441;SDS011;8838;50.144;8.176;2023-07-29T08:53:20;2.05;;;1.20;;
17441;SDS011;8838;50.144;8.176;2023-07-29T08:55:48;3.67;;;1.30;;
17441;SDS011;8838;50.144;8.176;2023-07-29T08:58:15;1.50;;;1.20;;
17441;SDS011;8838;50.144;8.176;2023-07-29T09:00:43;3.40;;;1.13;;
17441;SDS011;8838;50.144;8.176;2023-07-29T09:03:10;1.70;;;1.20;;
17441;SDS011;8838;50.144;8.176;2023-07-29T09:05:38;2.60;;;1.13;;
17441;SDS011;8838;50.144;8.176;2023-07-29T09:08:05;2.20;;;1.23;;
17441;SDS011;8838;50.144;8.176;2023-07-29T09:10:34;1.30;;;0.93;;
17441;SDS011;8838;50.144;8.176;2023-07-29T09:13:02;1.80;;;1.00;;
17441;SDS011;8838;50.144;8.176;2023-07-29T09:15:29;3.90;;;1.30;;
17441;SDS011;8838;50.144;8.176;2023-07-29T09:17:57;3.25;;;1.10;;
17441;SDS011;8838;50.144;8.176;2023-07-29T09:20:25;2.17;;;0.98;;
17441;SDS011;8838;50.144;8.176;2023-07-29T09:22:54;1.02;;;1.02;;
17441;SDS011;8838;50.144;8.176;2023-07-29T09:25:25;1.10;;;1.00;;
17441;SDS011;8838;50.144;8.176;2023-07-29T09:27:54;1.17;;;1.08;;
17441;SDS011;8838;50.144;8.176;2023-07-29T09:30:25;1.20;;;0.98;;
17441;SDS011;8838;50.144;8.176;2023-07-29T09:32:54;2.25;;;1.30;;
17441;SDS011;8838;50.144;8.176;2023-07-29T09:35:22;1.65;;;1.20;;
17441;SDS011;8838;50.144;8.176;2023-07-29T09:37:49;1.83;;;1.08;;
17441;SDS011;8838;50.144;8.176;2023-07-29T09:40:18;1.50;;;1.20;;
17441;SDS011;8838;50.144;8.176;2023-07-29T09:42:48;2.63;;;1.30;;
17441;SDS011;8838;50.144;8.176;2023-07-29T09:45:20;2.25;;;1.50;;
17441;SDS011;8838;50.144;8.176;2023-07-29T09:47:49;3.05;;;1.20;;
17441;SDS011;8838;50.144;8.176;2023-07-29T09:50:17;1.30;;;1.20;;
17441;SDS011;8838;50.144;8.176;2023-07-29T09:52:44;2.97;;;1.30;;
17441;SDS011;8838;50.144;8.176;2023-07-29T09:55:13;2.15;;;1.30;;
17441;SDS011;8838;50.144;8.176;2023-07-29T09:57:52;2.45;;;1.30;;
17441;SDS011;8838;50.144;8.176;2023-07-29T10:00:20;2.25;;;1.60;;
17441;SDS011;8838;50.144;8.176;2023-07-29T10:02:47;3.10;;;1.40;;
17441;SDS011;8838;50.144;8.176;2023-07-29T10:05:14;1.50;;;1.40;;
17441;SDS011;8838;50.144;8.176;2023-07-29T10:07:42;1.77;;;1.30;;
17441;SDS011;8838;50.144;8.176;2023-07-29T10:10:09;2.25;;;1.48;;
17441;SDS011;8838;50.144;8.176;2023-07-29T10:12:39;2.53;;;1.38;;
17441;SDS011;8838;50.144;8.176;2023-07-29T10:15:07;1.63;;;1.20;;
17441;SDS011;8838;50.144;8.176;2023-07-29T10:17:35;1.45;;;1.05;;
17441;SDS011;8838;50.144;8.176;2023-07-29T10:20:04;1.73;;;1.20;;
17441;SDS011;8838;50.144;8.176;2023-07-29T10:22:33;1.30;;;1.10;;
17441;SDS011;8838;50.144;8.176;2023-07-29T10:25:03;1.50;;;1.20;;
17441;SDS011;8838;50.144;8.176;2023-07-29T10:27:33;1.20;;;1.10;;
17441;SDS011;8838;50.144;8.176;2023-07-29T10:30:09;1.05;;;1.05;;
17441;SDS011;8838;50.144;8.176;2023-07-29T10:32:37;1.40;;;1.30;;
17441;SDS011;8838;50.144;8.176;2023-07-29T10:35:05;2.38;;;1.10;;
17441;SDS011;8838;50.144;8.176;2023-07-29T10:37:32;2.38;;;1.13;;
17441;SDS011;8838;50.144;8.176;2023-07-29T10:39:59;1.85;;;1.25;;
17441;SDS011;8838;50.144;8.176;2023-07-29T10:42:26;3.22;;;1.20;;
17441;SDS011;8838;50.144;8.176;2023-07-29T10:44:54;1.65;;;1.50;;
17441;SDS011;8838;50.144;8.176;2023-07-29T10:47:22;1.40;;;1.05;;
17441;SDS011;8838;50.144;8.176;2023-07-29T10:49:50;2.88;;;1.40;;
17441;SDS011;8838;50.144;8.176;2023-07-29T10:52:28;1.30;;;1.08;;
17441;SDS011;8838;50.144;8.176;2023-07-29T10:55:24;1.30;;;1.05;;
17441;SDS011;8838;50.144;8.176;2023-07-29T10:58:04;1.30;;;1.20;;
17441;SDS011;8838;50.144;8.176;2023-07-29T11:00:34;2.15;;;1.30;;
17441;SDS011;8838;50.144;8.176;2023-07-29T11:03:02;2.60;;;1.20;;
17441;SDS011;8838;50.144;8.176;2023-07-29T11:05:44;2.92;;;1.27;;
17441;SDS011;8838;50.144;8.176;2023-07-29T11:08:19;2.25;;;1.40;;
17441;SDS011;8838;50.144;8.176;2023-07-29T11:10:57;1.85;;;1.27;;
17441;SDS011;8838;50.144;8.176;2023-07-29T11:13:28;1.58;;;1.23;;
17441;SDS011;8838;50.144;8.176;2023-07-29T11:15:56;3.20;;;2.90;;
17441;SDS011;8838;50.144;8.176;2023-07-29T11:18:26;1.10;;;1.00;;
17441;SDS011;8838;50.144;8.176;2023-07-29T11:20:55;1.60;;;1.40;;
17441;SDS011;8838;50.144;8.176;2023-07-29T11:23:27;1.45;;;1.30;;
17441;SDS011;8838;50.144;8.176;2023-07-29T11:25:55;3.95;;;1.23;;
17441;SDS011;8838;50.144;8.176;2023-07-29T11:28:22;4.78;;;1.10;;
17441;SDS011;8838;50.144;8.176;2023-07-29T11:30:49;1.75;;;1.17;;
17441;SDS011;8838;50.144;8.176;2023-07-29T11:33:18;1.67;;;1.17;;
17441;SDS011;8838;50.144;8.176;2023-07-29T11:35:46;1.50;;;1.30;;
17441;SDS011;8838;50.144;8.176;2023-07-29T11:38:14;2.17;;;1.30;;
17441;SDS011;8838;50.144;8.176;2023-07-29T11:40:41;1.33;;;1.05;;
17441;SDS011;8838;50.144;8.176;2023-07-29T11:43:08;2.55;;;1.20;;
17441;SDS011;8838;50.144;8.176;2023-07-29T11:45:40;2.05;;;1.40;;
17441;SDS011;8838;50.144;8.176;2023-07-29T11:48:08;1.88;;;1.35;;
17441;SDS011;8838;50.144;8.176;2023-07-29T11:50:37;2.08;;;1.27;;
17441;SDS011;8838;50.144;8.176;2023-07-29T11:53:03;4.45;;;1.10;;
17441;SDS011;8838;50.144;8.176;2023-07-29T11:55:31;2.72;;;1.23;;
17441;SDS011;8838;50.144;8.176;2023-07-29T11:57:59;1.33;;;1.10;;
17441;SDS011;8838;50.144;8.176;2023-07-29T12:00:27;3.85;;;1.38;;
17441;SDS011;8838;50.144;8.176;2023-07-29T12:02:54;2.53;;;1.13;;
17441;SDS011;8838;50.144;8.176;2023-07-29T12:05:22;2.40;;;1.40;;
17441;SDS011;8838;50.144;8.176;2023-07-29T12:07:52;3.00;;;2.13;;
17441;SDS011;8838;50.144;8.176;2023-07-29T12:10:19;4.15;;;1.17;;
17441;SDS011;8838;50.144;8.176;2023-07-29T12:12:47;3.40;;;1.33;;
17441;SDS011;8838;50.144;8.176;2023-07-29T12:15:22;1.60;;;1.40;;
17441;SDS011;8838;50.144;8.176;2023-07-29T12:17:51;1.90;;;1.30;;
17441;SDS011;8838;50.144;8.176;2023-07-29T12:20:20;1.40;;;1.08;;
17441;SDS011;8838;50.144;8.176;2023-07-29T12:22:52;2.78;;;1.60;;
17441;SDS011;8838;50.144;8.176;2023-07-29T12:25:19;1.58;;;1.30;;
17441;SDS011;8838;50.144;8.176;2023-07-29T12:27:46;2.60;;;1.30;;
17441;SDS011;8838;50.144;8.176;2023-07-29T12:30:13;1.67;;;1.50;;
17441;SDS011;8838;50.144;8.176;2023-07-29T12:32:43;1.45;;;1.20;;
17441;SDS011;8838;50.144;8.176;2023-07-29T12:35:11;3.90;;;1.30;;
17441;SDS011;8838;50.144;8.176;2023-07-29T12:37:38;1.60;;;1.50;;
17441;SDS011;8838;50.144;8.176;2023-07-29T12:40:19;3.08;;;1.50;;
17441;SDS011;8838;50.144;8.176;2023-07-29T12:42:48;1.60;;;1.50;;
17441;SDS011;8838;50.144;8.176;2023-07-29T12:45:17;1.85;;;1.35;;
17441;SDS011;8838;50.144;8.176;2023-07-29T12:47:44;2.75;;;1.42;;
17441;SDS011;8838;50.144;8.176;2023-07-29T12:50:11;1.70;;;1.35;;
17441;SDS011;8838;50.144;8.176;2023-07-29T12:52:38;2.28;;;1.52;;
17441;SDS011;8838;50.144;8.176;2023-07-29T12:55:05;2.03;;;1.50;;
17441;SDS011;8838;50.144;8.176;2023-07-29T12:57:34;2.72;;;1.52;;
17441;SDS011;8838;50.144;8.176;2023-07-29T13:00:02;3.70;;;1.50;;
17441;SDS011;8838;50.144;8.176;2023-07-29T13:02:29;1.63;;;1.30;;
17441;SDS011;8838;50.144;8.176;2023-07-29T13:04:55;3.95;;;1.40;;
17441;SDS011;8838;50.144;8.176;2023-07-29T13:07:22;3.55;;;1.38;;
17441;SDS011;8838;50.144;8.176;2023-07-29T13:09:49;3.15;;;1.50;;
17441;SDS011;8838;50.144;8.176;2023-07-29T13:12:16;2.35;;;1.33;;
17441;SDS011;8838;50.144;8.176;2023-07-29T13:14:47;2.83;;;1.20;;
17441;SDS011;8838;50.144;8.176;2023-07-29T13:17:13;2.83;;;1.20;;
17441;SDS011;8838;50.144;8.176;2023-07-29T13:19:40;3.70;;;1.40;;
17441;SDS011;8838;50.144;8.176;2023-07-29T13:22:07;1.25;;;1.15;;
17441;SDS011;8838;50.144;8.176;2023-07-29T13:24:34;1.50;;;1.40;;
17441;SDS011;8838;50.144;8.176;2023-07-29T13:27:02;1.48;;;1.35;;
17441;SDS011;8838;50.144;8.176;2023-07-29T13:29:29;1.17;;;1.08;;
17441;SDS011;8838;50.144;8.176;2023-07-29T13:31:57;2.67;;;1.40;;
17441;SDS011;8838;50.144;8.176;2023-07-29T13:34:24;1.92;;;1.20;;
17441;SDS011;8838;50.144;8.176;2023-07-29T13:36:51;3.58;;;1.38;;
17441;SDS011;8838;50.144;8.176;2023-07-29T13:39:18;1.40;;;1.30;;
17441;SDS011;8838;50.144;8.176;2023-07-29T13:41:46;1.55;;;1.25;;
17441;SDS011;8838;50.144;8.176;2023-07-29T13:44:13;3.95;;;1.38;;
17441;SDS011;8838;50.144;8.176;2023-07-29T13:47:04;3.83;;;1.30;;
17441;SDS011;8838;50.144;8.176;2023-07-29T13:49:31;2.47;;;1.20;;
17441;SDS011;8838;50.144;8.176;2023-07-29T13:51:58;2.08;;;1.10;;
17441;SDS011;8838;50.144;8.176;2023-07-29T13:54:25;1.70;;;1.60;;
17441;SDS011;8838;50.144;8.176;2023-07-29T13:56:53;2.92;;;1.20;;
17441;SDS011;8838;50.144;8.176;2023-07-29T13:59:20;1.40;;;1.30;;
17441;SDS011;8838;50.144;8.176;2023-07-29T14:01:47;1.90;;;1.20;;
17441;SDS011;8838;50.144;8.176;2023-07-29T14:04:15;6.85;;;1.90;;
17441;SDS011;8838;50.144;8.176;2023-07-29T14:06:42;2.88;;;1.42;;
17441;SDS011;8838;50.144;8.176;2023-07-29T14:09:10;2.40;;;1.30;;
17441;SDS011;8838;50.144;8.176;2023-07-29T14:11:37;3.50;;;1.52;;
17441;SDS011;8838;50.144;8.176;2023-07-29T14:14:04;2.65;;;1.50;;
17441;SDS011;8838;50.144;8.176;2023-07-29T14:16:30;2.90;;;1.58;;
17441;SDS011;8838;50.144;8.176;2023-07-29T14:18:57;1.60;;;1.50;;
17441;SDS011;8838;50.144;8.176;2023-07-29T14:21:25;2.65;;;1.30;;
17441;SDS011;8838;50.144;8.176;2023-07-29T14:23:52;1.65;;;1.13;;
17441;SDS011;8838;50.144;8.176;2023-07-29T14:26:19;1.58;;;1.42;;
17441;SDS011;8838;50.144;8.176;2023-07-29T14:28:45;3.33;;;1.23;;
17441;SDS011;8838;50.144;8.176;2023-07-29T14:31:12;1.33;;;1.23;;
17441;SDS011;8838;50.144;8.176;2023-07-29T14:33:41;1.60;;;1.50;;
17441;SDS011;8838;50.144;8.176;2023-07-29T14:36:08;1.05;;;1.05;;
17441;SDS011;8838;50.144;8.176;2023-07-29T14:38:36;1.70;;;1.25;;
17441;SDS011;8838;50.144;8.176;2023-07-29T14:41:03;1.50;;;1.40;;
17441;SDS011;8838;50.144;8.176;2023-07-29T14:43:30;1.83;;;1.50;;
17441;SDS011;8838;50.144;8.176;2023-07-29T14:45:57;3.22;;;1.40;;
17441;SDS011;8838;50.144;8.176;2023-07-29T14:48:24;2.88;;;1.40;;
17441;SDS011;8838;50.144;8.176;2023-07-29T14:50:50;1.48;;;1.35;;
17441;SDS011;8838;50.144;8.176;2023-07-29T14:53:17;2.40;;;1.42;;
17441;SDS011;8838;50.144;8.176;2023-07-29T14:55:45;1.45;;;1.35;;
17441;SDS011;8838;50.144;8.176;2023-07-29T14:58:12;2.05;;;1.48;;
17441;SDS011;8838;50.144;8.176;2023-07-29T15:00:39;2.83;;;1.50;;
17441;SDS011;8838;50.144;8.176;2023-07-29T15:03:06;2.03;;;1.60;;
17441;SDS011;8838;50.144;8.176;2023-07-29T15:05:33;2.55;;;1.42;;